Time;durP1;ratioP1;P1;durP2;ratioP2;P2;SDS_P1;SDS_P2;PMS_P1;PMS_P2;Temp;Humidity;BMP_temperature;BMP_pressure;BME280_temperature;BME280_humidity;BME280_pressure;Samples;Min_cycle;Max_cycle;Signal;HPM_P1;HPM_P2
2023/09/12 00:02:11;;;;;;;152.02;55.72;;;;;;;;;;5010894;28;20013;-68
2023/09/12 00:04:36;;;;;;;164.05;57.15;;;;;;;;;;5007810;28;20042;-67
2023/09/12 00:07:02;;;;;;;171.68;57.92;;;;;;;;;;4996837;28;20026;-67
2023/09/12 00:09:27;;;;;;;154.63;60.22;;;;;;;;;;5009478;28;20101;-67
2023/09/12 00:11:54;;;;;;;163.27;59.70;;;;;;;;;;4998746;28;20014;-67
2023/09/12 00:14:19;;;;;;;176.43;61.20;;;;;;;;;;4994919;28;20418;-67
2023/09/12 00:16:45;;;;;;;169.23;61.60;;;;;;;;;;4995150;28;20022;-67
2023/09/12 00:19:10;;;;;;;175.15;59.45;;;;;;;;;;4995073;28;20033;-67
2023/09/12 00:21:35;;;;;;;162.13;59.13;;;;;;;;;;4995019;28;20037;-66
2023/09/12 00:24:00;;;;;;;169.73;60.90;;;;;;;;;;4994771;28;20073;-67
2023/09/12 00:26:26;;;;;;;164.10;59.90;;;;;;;;;;4996354;28;20057;-66
2023/09/12 00:28:51;;;;;;;170.20;60.33;;;;;;;;;;4994813;28;20026;-67
2023/09/12 00:31:17;;;;;;;183.27;62.50;;;;;;;;;;4994914;28;20025;-67
2023/09/12 00:33:42;;;;;;;188.30;63.05;;;;;;;;;;4994793;28;20514;-68
2023/09/12 00:36:07;;;;;;;188.65;63.50;;;;;;;;;;5005076;28;20486;-67
2023/09/12 00:38:32;;;;;;;181.45;62.78;;;;;;;;;;4995492;28;20406;-67
2023/09/12 00:40:57;;;;;;;234.43;66.43;;;;;;;;;;4994424;28;20061;-68
2023/09/12 00:43:23;;;;;;;219.75;66.30;;;;;;;;;;4993681;28;20049;-68
2023/09/12 00:45:48;;;;;;;185.15;63.25;;;;;;;;;;4996102;28;20074;-67
2023/09/12 00:48:14;;;;;;;188.07;63.55;;;;;;;;;;5004308;28;20025;-67
2023/09/12 00:50:40;;;;;;;193.57;66.50;;;;;;;;;;4994362;28;20530;-68
2023/09/12 00:53:06;;;;;;;219.30;68.68;;;;;;;;;;4996191;28;20030;-67
2023/09/12 00:55:32;;;;;;;252.52;68.75;;;;;;;;;;5000855;28;20022;-66
2023/09/12 00:57:58;;;;;;;312.13;72.28;;;;;;;;;;4994450;28;20028;-70
2023/09/12 01:03:27;;;;;;;240.57;70.32;;;;;;;;;;5012633;23;20060;-66
2023/09/12 01:05:53;;;;;;;259.38;73.18;;;;;;;;;;5010934;28;20472;-66
2023/09/12 01:08:18;;;;;;;264.02;72.35;;;;;;;;;;5013073;28;20105;-66
2023/09/12 01:10:45;;;;;;;340.88;76.35;;;;;;;;;;5012336;28;20536;-66
2023/09/12 01:13:11;;;;;;;256.17;69.65;;;;;;;;;;5012521;28;20022;-68
2023/09/12 01:15:36;;;;;;;269.23;75.63;;;;;;;;;;5012717;28;20109;-67
2023/09/12 01:18:02;;;;;;;236.73;72.10;;;;;;;;;;5012525;28;20084;-67
2023/09/12 01:20:28;;;;;;;239.00;71.57;;;;;;;;;;5012281;28;20041;-67
2023/09/12 01:22:57;;;;;;;267.92;75.28;;;;;;;;;;5012173;28;20030;-66
2023/09/12 01:25:25;;;;;;;339.95;80.47;;;;;;;;;;5012622;28;20014;-67
2023/09/12 01:27:51;;;;;;;327.02;77.25;;;;;;;;;;5012711;28;20549;-67
2023/09/12 01:30:18;;;;;;;305.95;77.65;;;;;;;;;;5012686;28;20048;-66
2023/09/12 01:32:43;;;;;;;462.70;85.60;;;;;;;;;;5011553;28;20021;-66
2023/09/12 01:35:08;;;;;;;365.00;83.07;;;;;;;;;;5012673;28;20084;-67
2023/09/12 01:37:34;;;;;;;306.30;79.78;;;;;;;;;;5010310;28;20112;-67
2023/09/12 01:39:59;;;;;;;325.88;81.72;;;;;;;;;;5011999;28;20025;-66
2023/09/12 01:42:27;;;;;;;277.48;79.00;;;;;;;;;;5010166;28;20104;-66
2023/09/12 01:44:55;;;;;;;262.55;77.65;;;;;;;;;;5012171;28;20022;-66
2023/09/12 01:47:20;;;;;;;292.70;82.22;;;;;;;;;;5012385;28;20462;-65
2023/09/12 01:49:46;;;;;;;270.17;80.15;;;;;;;;;;5009562;28;20147;-67
2023/09/12 01:52:12;;;;;;;373.20;83.85;;;;;;;;;;5012111;28;20060;-67
2023/09/12 01:54:38;;;;;;;303.65;82.35;;;;;;;;;;5011948;28;20073;-66
2023/09/12 01:57:04;;;;;;;362.38;85.95;;;;;;;;;;5012181;28;20033;-66
2023/09/12 01:59:29;;;;;;;319.98;82.97;;;;;;;;;;5012520;28;20061;-66
2023/09/12 02:01:55;;;;;;;367.15;83.95;;;;;;;;;;5011581;28;20058;-66
2023/09/12 02:04:20;;;;;;;390.95;88.15;;;;;;;;;;5010763;28;20046;-66
2023/09/12 02:06:45;;;;;;;306.73;85.53;;;;;;;;;;5011507;28;20075;-66
2023/09/12 02:09:10;;;;;;;345.50;88.03;;;;;;;;;;5011572;28;20025;-66
2023/09/12 02:11:36;;;;;;;310.80;84.65;;;;;;;;;;5012107;28;20454;-71
2023/09/12 02:14:01;;;;;;;294.85;84.47;;;;;;;;;;5011797;28;20022;-71
2023/09/12 02:16:26;;;;;;;290.42;83.65;;;;;;;;;;5009679;28;20072;-71
2023/09/12 02:18:51;;;;;;;277.55;80.35;;;;;;;;;;5011460;28;20025;-71
2023/09/12 02:21:17;;;;;;;296.50;80.95;;;;;;;;;;5011941;28;20044;-71
2023/09/12 02:23:42;;;;;;;269.83;80.20;;;;;;;;;;5016063;28;20363;-71
2023/09/12 02:26:07;;;;;;;268.30;81.75;;;;;;;;;;5015974;28;20351;-70
2023/09/12 02:28:32;;;;;;;265.50;81.57;;;;;;;;;;5015951;28;20026;-71
2023/09/12 02:30:58;;;;;;;243.68;74.82;;;;;;;;;;5015899;28;20454;-70
2023/09/12 02:33:23;;;;;;;245.18;77.43;;;;;;;;;;5015290;28;20392;-70
2023/09/12 02:35:48;;;;;;;245.10;74.72;;;;;;;;;;5015516;28;20544;-71
2023/09/12 02:38:13;;;;;;;224.48;77.57;;;;;;;;;;5015479;28;20061;-70
2023/09/12 02:40:38;;;;;;;222.88;74.28;;;;;;;;;;5015725;28;20025;-71
2023/09/12 02:43:04;;;;;;;221.82;71.88;;;;;;;;;;5015440;28;20030;-71
2023/09/12 02:45:29;;;;;;;205.30;70.03;;;;;;;;;;5015613;28;20021;-71
2023/09/12 02:47:54;;;;;;;215.23;74.40;;;;;;;;;;5015614;28;20462;-70
2023/09/12 02:50:19;;;;;;;229.95;76.80;;;;;;;;;;5014923;28;21467;-71
2023/09/12 02:52:45;;;;;;;221.32;74.78;;;;;;;;;;5015027;28;20041;-71
2023/09/12 02:55:10;;;;;;;204.68;71.38;;;;;;;;;;5015316;28;20022;-71
2023/09/12 02:57:36;;;;;;;216.32;70.63;;;;;;;;;;5014585;28;20040;-71
2023/09/12 03:00:01;;;;;;;183.38;61.38;;;;;;;;;;5015677;28;20026;-71
2023/09/12 03:02:29;;;;;;;176.00;57.63;;;;;;;;;;5015649;28;20132;-71
2023/09/12 03:04:54;;;;;;;163.30;57.60;;;;;;;;;;5016595;28;20029;-71
2023/09/12 03:07:19;;;;;;;137.10;49.35;;;;;;;;;;5016505;28;20037;-71
2023/09/12 03:09:47;;;;;;;154.10;55.60;;;;;;;;;;5016210;28;20466;-71
2023/09/12 03:12:13;;;;;;;141.80;53.25;;;;;;;;;;5016217;28;20076;-71
2023/09/12 03:14:38;;;;;;;143.77;53.25;;;;;;;;;;5016088;28;20033;-71
2023/09/12 03:17:04;;;;;;;126.18;49.30;;;;;;;;;;5016452;28;20097;-71
2023/09/12 03:19:30;;;;;;;134.07;51.17;;;;;;;;;;5016135;28;20132;-71
2023/09/12 03:21:55;;;;;;;123.88;48.97;;;;;;;;;;5016082;28;20038;-66
2023/09/12 03:24:23;;;;;;;122.95;47.95;;;;;;;;;;5016222;28;20542;-66
2023/09/12 03:26:48;;;;;;;160.30;57.90;;;;;;;;;;5016202;28;20414;-66
2023/09/12 03:29:14;;;;;;;216.43;61.92;;;;;;;;;;5015121;28;20072;-66
2023/09/12 03:31:39;;;;;;;175.98;60.78;;;;;;;;;;5013435;28;20026;-65
2023/09/12 03:34:04;;;;;;;177.23;58.45;;;;;;;;;;5014792;28;20018;-67
2023/09/12 03:36:29;;;;;;;189.45;58.85;;;;;;;;;;5015778;28;20104;-67
2023/09/12 03:38:55;;;;;;;152.38;53.42;;;;;;;;;;5015556;28;20034;-66
2023/09/12 03:41:24;;;;;;;150.73;54.05;;;;;;;;;;5006914;28;20038;-66
2023/09/12 03:43:50;;;;;;;179.38;58.30;;;;;;;;;;4996533;28;20026;-66
2023/09/12 03:46:15;;;;;;;177.73;54.95;;;;;;;;;;5015805;28;20056;-66
2023/09/12 03:48:40;;;;;;;186.27;59.22;;;;;;;;;;5014838;28;20118;-67
2023/09/12 03:51:05;;;;;;;189.60;60.80;;;;;;;;;;5015776;28;20423;-67
2023/09/12 03:53:31;;;;;;;213.25;64.75;;;;;;;;;;5015455;28;20513;-66
2023/09/12 03:55:57;;;;;;;209.98;64.97;;;;;;;;;;5015439;28;20492;-66
2023/09/12 03:58:22;;;;;;;223.13;62.80;;;;;;;;;;5015345;28;20112;-66
2023/09/12 04:00:47;;;;;;;233.60;63.72;;;;;;;;;;5015217;28;20541;-66
2023/09/12 04:03:13;;;;;;;214.98;60.40;;;;;;;;;;5015096;28;20129;-66
2023/09/12 04:05:38;;;;;;;212.70;61.13;;;;;;;;;;5012213;28;20493;-67
2023/09/12 04:08:03;;;;;;;253.25;68.20;;;;;;;;;;5015002;28;20462;-66
2023/09/12 04:10:28;;;;;;;308.60;69.30;;;;;;;;;;5000022;28;20109;-67
2023/09/12 04:12:54;;;;;;;266.33;66.15;;;;;;;;;;5000930;28;20128;-67
2023/09/12 04:15:19;;;;;;;258.40;65.50;;;;;;;;;;5011447;28;20041;-66
2023/09/12 04:17:44;;;;;;;250.10;65.85;;;;;;;;;;5015284;28;20032;-67
2023/09/12 04:20:13;;;;;;;242.80;63.88;;;;;;;;;;5015212;28;20026;-67
2023/09/12 04:22:38;;;;;;;246.07;66.32;;;;;;;;;;5014787;28;20054;-67
2023/09/12 04:25:04;;;;;;;260.73;66.32;;;;;;;;;;5014641;28;20100;-67
2023/09/12 04:27:29;;;;;;;239.93;63.85;;;;;;;;;;5014777;28;20069;-66
2023/09/12 04:29:54;;;;;;;247.30;65.22;;;;;;;;;;5014141;28;20033;-67
2023/09/12 04:32:23;;;;;;;229.10;64.82;;;;;;;;;;5014516;28;20025;-71
2023/09/12 04:34:48;;;;;;;214.88;61.10;;;;;;;;;;5014925;28;20411;-71
2023/09/12 04:37:13;;;;;;;206.82;60.35;;;;;;;;;;5014684;28;20026;-71
2023/09/12 04:39:39;;;;;;;213.25;61.05;;;;;;;;;;5014510;28;20359;-71
2023/09/12 04:42:04;;;;;;;218.73;63.75;;;;;;;;;;5013915;28;20026;-71
2023/09/12 04:44:34;;;;;;;216.10;63.72;;;;;;;;;;5012602;28;20029;-72
2023/09/12 04:46:59;;;;;;;216.95;60.92;;;;;;;;;;5014505;28;20022;-71
2023/09/12 04:49:24;;;;;;;210.95;62.20;;;;;;;;;;5014659;28;20348;-71
2023/09/12 04:51:50;;;;;;;216.63;65.07;;;;;;;;;;5014444;28;20462;-71
2023/09/12 04:54:15;;;;;;;216.85;63.75;;;;;;;;;;5014348;28;20037;-71
2023/09/12 04:56:40;;;;;;;224.85;66.32;;;;;;;;;;5013511;28;20400;-71
2023/09/12 04:59:06;;;;;;;222.88;66.45;;;;;;;;;;5012230;28;20026;-71
2023/09/12 05:01:32;;;;;;;202.23;61.97;;;;;;;;;;5013865;28;20084;-71
2023/09/12 05:03:57;;;;;;;196.98;61.60;;;;;;;;;;5013163;28;20442;-71
2023/09/12 05:06:22;;;;;;;182.05;56.70;;;;;;;;;;5013897;28;20093;-72
2023/09/12 05:08:47;;;;;;;159.00;54.95;;;;;;;;;;5013582;28;20072;-71
2023/09/12 05:11:13;;;;;;;157.52;54.88;;;;;;;;;;5012542;28;20110;-71
2023/09/12 05:13:38;;;;;;;161.18;54.17;;;;;;;;;;5013618;28;20041;-71
2023/09/12 05:16:03;;;;;;;139.77;51.05;;;;;;;;;;5013458;28;20397;-71
2023/09/12 05:18:28;;;;;;;146.93;52.05;;;;;;;;;;5013159;28;20489;-71
2023/09/12 05:20:54;;;;;;;149.55;50.47;;;;;;;;;;5002172;28;20067;-71
2023/09/12 05:23:19;;;;;;;158.27;52.20;;;;;;;;;;4994331;28;20467;-71
2023/09/12 05:25:44;;;;;;;167.98;51.38;;;;;;;;;;4994341;28;20470;-71
2023/09/12 05:28:10;;;;;;;146.57;49.92;;;;;;;;;;4994288;28;20093;-71
2023/09/12 05:30:35;;;;;;;128.48;46.95;;;;;;;;;;5009058;28;20064;-71
2023/09/12 05:33:01;;;;;;;120.22;44.72;;;;;;;;;;5012759;28;20390;-71
2023/09/12 05:35:26;;;;;;;119.82;44.20;;;;;;;;;;5013287;28;20036;-71
2023/09/12 05:37:52;;;;;;;125.60;47.08;;;;;;;;;;5010810;28;20041;-71
2023/09/12 05:40:17;;;;;;;106.68;43.28;;;;;;;;;;5010468;28;20088;-71
2023/09/12 05:42:43;;;;;;;120.07;44.90;;;;;;;;;;5012968;28;20028;-67
2023/09/12 05:45:08;;;;;;;131.38;47.35;;;;;;;;;;5013115;28;20029;-67
2023/09/12 05:47:33;;;;;;;127.97;45.53;;;;;;;;;;5013467;28;20105;-68
2023/09/12 05:50:05;;;;;;;137.15;46.97;;;;;;;;;;5013467;28;20048;-67
2023/09/12 05:52:30;;;;;;;128.55;45.92;;;;;;;;;;5013445;28;20026;-67
2023/09/12 05:54:55;;;;;;;127.00;44.30;;;;;;;;;;4996693;28;20084;-67
2023/09/12 05:57:21;;;;;;;113.32;40.50;;;;;;;;;;4993133;28;20122;-67
2023/09/12 05:59:46;;;;;;;105.32;39.63;;;;;;;;;;4998879;28;20025;-67
2023/09/12 06:02:11;;;;;;;120.28;42.10;;;;;;;;;;5003494;28;20081;-67
2023/09/12 06:04:36;;;;;;;121.80;44.42;;;;;;;;;;4995955;28;20046;-67
2023/09/12 06:07:02;;;;;;;118.25;42.05;;;;;;;;;;5001083;28;20026;-67
2023/09/12 06:09:27;;;;;;;128.35;45.67;;;;;;;;;;5013486;28;20065;-67
2023/09/12 06:11:53;;;;;;;127.75;45.05;;;;;;;;;;5013045;28;20018;-68
2023/09/12 06:14:18;;;;;;;129.82;46.97;;;;;;;;;;5013231;28;20131;-67
2023/09/12 06:16:43;;;;;;;117.78;45.88;;;;;;;;;;5012870;28;20029;-67
2023/09/12 06:19:09;;;;;;;115.40;44.25;;;;;;;;;;5013502;28;20137;-68
2023/09/12 06:21:34;;;;;;;114.45;41.95;;;;;;;;;;5012987;28;20359;-67
2023/09/12 06:24:28;;;;;;;114.65;42.03;;;;;;;;;;5001283;28;20056;-68
2023/09/12 06:26:53;;;;;;;104.38;41.25;;;;;;;;;;5010869;28;20077;-67
2023/09/12 06:29:19;;;;;;;116.72;41.22;;;;;;;;;;5010928;28;20025;-67
2023/09/12 06:31:44;;;;;;;106.63;40.53;;;;;;;;;;5010406;28;20037;-67
2023/09/12 06:34:09;;;;;;;106.07;40.42;;;;;;;;;;5010884;28;20118;-67
2023/09/12 06:36:35;;;;;;;99.25;38.10;;;;;;;;;;5010806;28;20062;-67
2023/09/12 06:39:00;;;;;;;94.50;39.55;;;;;;;;;;5010902;28;20049;-68
2023/09/12 06:41:26;;;;;;;93.18;38.75;;;;;;;;;;5010911;28;20028;-67
2023/09/12 06:43:51;;;;;;;94.60;39.17;;;;;;;;;;5010724;28;20510;-68
2023/09/12 06:46:17;;;;;;;92.60;37.95;;;;;;;;;;5010441;28;20029;-67
2023/09/12 06:48:43;;;;;;;91.00;39.00;;;;;;;;;;5010714;28;20060;-68
2023/09/12 06:51:08;;;;;;;81.78;36.28;;;;;;;;;;5010797;28;20096;-67
2023/09/12 06:53:33;;;;;;;76.60;35.63;;;;;;;;;;5010963;28;20029;-67
2023/09/12 06:55:59;;;;;;;69.57;35.08;;;;;;;;;;5010629;28;20078;-67
2023/09/12 06:58:24;;;;;;;68.70;34.45;;;;;;;;;;5009979;28;20478;-67
2023/09/12 07:00:50;;;;;;;65.55;34.03;;;;;;;;;;5010052;28;20029;-68
2023/09/12 07:03:15;;;;;;;66.20;34.10;;;;;;;;;;5011334;28;20046;-67
2023/09/12 07:05:41;;;;;;;64.10;32.85;;;;;;;;;;5012930;28;20026;-68
2023/09/12 07:08:06;;;;;;;60.40;32.97;;;;;;;;;;5011294;28;20018;-67
2023/09/12 07:10:32;;;;;;;55.28;32.13;;;;;;;;;;5016519;28;20033;-68
2023/09/12 07:12:57;;;;;;;52.20;30.90;;;;;;;;;;5016235;28;20040;-67
2023/09/12 07:15:22;;;;;;;53.03;30.73;;;;;;;;;;5016086;28;20109;-68
2023/09/12 07:17:47;;;;;;;49.38;30.35;;;;;;;;;;5016291;28;20026;-67
2023/09/12 07:20:15;;;;;;;58.33;31.15;;;;;;;;;;5016367;28;20050;-68
2023/09/12 07:22:41;;;;;;;47.67;28.85;;;;;;;;;;5015915;28;20030;-67
2023/09/12 07:25:06;;;;;;;41.83;26.15;;;;;;;;;;5015959;28;20021;-67
2023/09/12 07:27:31;;;;;;;34.17;24.23;;;;;;;;;;5015936;28;20030;-67
2023/09/12 07:29:57;;;;;;;32.88;22.88;;;;;;;;;;5015911;28;20046;-67
2023/09/12 07:32:22;;;;;;;32.65;21.40;;;;;;;;;;5015515;28;20034;-68
2023/09/12 07:34:48;;;;;;;36.97;22.38;;;;;;;;;;5016113;28;20068;-67
2023/09/12 07:37:13;;;;;;;32.38;20.65;;;;;;;;;;5015755;28;20056;-67
2023/09/12 07:39:39;;;;;;;33.63;21.88;;;;;;;;;;5010485;28;20019;-67
2023/09/12 07:42:04;;;;;;;37.33;22.55;;;;;;;;;;5007781;28;20025;-68
2023/09/12 07:44:29;;;;;;;33.65;23.15;;;;;;;;;;5014588;28;20390;-68
2023/09/12 07:46:54;;;;;;;30.77;20.13;;;;;;;;;;5005382;28;20397;-67
2023/09/12 07:49:20;;;;;;;30.98;19.50;;;;;;;;;;5015893;28;20033;-67
2023/09/12 07:51:45;;;;;;;29.80;19.65;;;;;;;;;;5015809;28;20022;-67
2023/09/12 07:54:10;;;;;;;28.90;19.45;;;;;;;;;;5015819;28;20022;-67
2023/09/12 07:56:35;;;;;;;30.58;20.13;;;;;;;;;;5015371;28;20050;-68
2023/09/12 07:59:01;;;;;;;31.63;19.77;;;;;;;;;;5015452;28;20022;-67
2023/09/12 08:01:27;;;;;;;31.08;21.45;;;;;;;;;;5015280;28;20034;-66
2023/09/12 08:03:52;;;;;;;32.72;21.10;;;;;;;;;;5011820;28;20049;-67
2023/09/12 08:06:17;;;;;;;31.20;21.42;;;;;;;;;;5015475;28;20097;-67
2023/09/12 08:08:43;;;;;;;33.67;21.92;;;;;;;;;;5015397;28;20034;-67
2023/09/12 08:11:08;;;;;;;32.00;22.13;;;;;;;;;;5013250;28;20025;-67
2023/09/12 08:13:33;;;;;;;30.70;20.40;;;;;;;;;;5015349;28;20029;-67
2023/09/12 08:15:59;;;;;;;31.33;21.00;;;;;;;;;;5013868;28;20157;-66
2023/09/12 08:18:29;;;;;;;33.60;22.02;;;;;;;;;;5014952;28;20029;-66
2023/09/12 08:20:54;;;;;;;34.03;23.13;;;;;;;;;;5014137;28;20026;-67
2023/09/12 08:23:20;;;;;;;35.47;23.85;;;;;;;;;;5014792;28;20029;-67
2023/09/12 08:25:45;;;;;;;41.05;25.35;;;;;;;;;;5014660;28;20029;-67
2023/09/12 08:28:10;;;;;;;39.20;25.83;;;;;;;;;;5014819;28;20022;-68
2023/09/12 08:30:35;;;;;;;37.90;25.05;;;;;;;;;;5015070;28;20057;-67
2023/09/12 08:33:03;;;;;;;42.13;25.33;;;;;;;;;;5014673;28;20022;-67
2023/09/12 08:35:28;;;;;;;40.92;25.58;;;;;;;;;;5014790;28;20079;-67
2023/09/12 08:37:53;;;;;;;42.28;25.20;;;;;;;;;;5014926;28;20026;-67
2023/09/12 08:40:19;;;;;;;38.58;24.58;;;;;;;;;;5014552;28;20024;-67
2023/09/12 08:42:44;;;;;;;38.92;24.33;;;;;;;;;;5014582;28;20026;-67
2023/09/12 08:45:13;;;;;;;39.80;24.45;;;;;;;;;;5014901;28;20110;-67
2023/09/12 08:47:42;;;;;;;41.38;23.67;;;;;;;;;;5014128;28;20044;-67
2023/09/12 08:50:09;;;;;;;39.25;23.35;;;;;;;;;;5014528;28;20080;-67
2023/09/12 08:52:35;;;;;;;38.47;23.67;;;;;;;;;;5014353;28;20022;-67
2023/09/12 08:55:00;;;;;;;40.10;23.77;;;;;;;;;;5014304;28;20104;-67
2023/09/12 08:57:25;;;;;;;38.38;23.63;;;;;;;;;;5014272;28;20176;-68
2023/09/12 08:59:51;;;;;;;38.55;23.90;;;;;;;;;;5013238;28;20104;-67
2023/09/12 09:02:17;;;;;;;37.97;24.13;;;;;;;;;;5013037;28;20025;-68
2023/09/12 09:04:42;;;;;;;38.55;23.15;;;;;;;;;;5014335;28;20481;-67
2023/09/12 09:07:09;;;;;;;41.08;24.00;;;;;;;;;;5014381;28;20018;-66
2023/09/12 09:09:34;;;;;;;36.50;24.50;;;;;;;;;;5014022;28;20018;-67
2023/09/12 09:12:00;;;;;;;41.63;25.52;;;;;;;;;;5014442;28;20098;-71
2023/09/12 09:14:25;;;;;;;37.78;24.05;;;;;;;;;;5013992;28;20026;-71
2023/09/12 09:16:50;;;;;;;37.33;23.58;;;;;;;;;;5013985;28;20096;-71
2023/09/12 09:19:16;;;;;;;38.88;22.65;;;;;;;;;;5013679;28;20030;-71
2023/09/12 09:21:41;;;;;;;34.85;22.13;;;;;;;;;;5014135;28;20036;-71
2023/09/12 09:24:08;;;;;;;38.47;22.30;;;;;;;;;;5014111;28;20033;-71
2023/09/12 09:26:46;;;;;;;35.03;21.30;;;;;;;;;;5013745;28;20498;-71
2023/09/12 09:29:16;;;;;;;32.50;21.58;;;;;;;;;;5013595;28;20026;-71
2023/09/12 09:31:42;;;;;;;34.33;20.02;;;;;;;;;;5010416;28;20097;-71
2023/09/12 09:34:19;;;;;;;28.85;19.38;;;;;;;;;;5012536;28;20026;-71
2023/09/12 09:36:52;;;;;;;33.75;19.88;;;;;;;;;;5012285;28;20033;-71
2023/09/12 09:39:18;;;;;;;30.88;20.17;;;;;;;;;;5013895;28;20084;-71
2023/09/12 09:41:47;;;;;;;34.28;21.15;;;;;;;;;;4997432;28;20026;-71
2023/09/12 09:44:13;;;;;;;30.85;20.45;;;;;;;;;;4994009;28;20081;-71
2023/09/12 09:46:38;;;;;;;33.00;21.25;;;;;;;;;;4994130;28;20033;-71
2023/09/12 09:49:03;;;;;;;38.50;21.92;;;;;;;;;;5007512;28;20034;-71
2023/09/12 09:51:30;;;;;;;34.40;22.00;;;;;;;;;;5012771;28;20037;-71
2023/09/12 09:53:58;;;;;;;36.97;22.58;;;;;;;;;;5010705;28;20445;-71
2023/09/12 09:56:23;;;;;;;37.08;22.65;;;;;;;;;;5013454;28;20026;-70
2023/09/12 09:58:50;;;;;;;39.17;23.85;;;;;;;;;;5013552;28;20057;-71
2023/09/12 10:01:20;;;;;;;41.45;24.77;;;;;;;;;;5013289;28;20026;-70
2023/09/12 10:03:52;;;;;;;48.08;26.15;;;;;;;;;;5012348;28;20045;-71
2023/09/12 10:06:18;;;;;;;48.13;26.05;;;;;;;;;;5013506;28;20017;-70
2023/09/12 10:08:44;;;;;;;48.70;25.88;;;;;;;;;;5013303;28;20519;-71
2023/09/12 10:11:10;;;;;;;57.47;28.00;;;;;;;;;;5002744;28;20049;-71
2023/09/12 10:13:35;;;;;;;52.42;28.27;;;;;;;;;;5012526;28;20057;-71
2023/09/12 10:16:04;;;;;;;50.45;27.92;;;;;;;;;;5013508;28;20026;-71
2023/09/12 10:18:31;;;;;;;47.30;26.58;;;;;;;;;;5013042;28;20041;-71
2023/09/12 10:21:03;;;;;;;39.60;24.23;;;;;;;;;;5013165;28;20032;-71
2023/09/12 10:23:37;;;;;;;48.47;26.58;;;;;;;;;;5013460;28;20030;-72
2023/09/12 10:26:02;;;;;;;45.63;25.45;;;;;;;;;;5013132;28;20018;-71
2023/09/12 10:28:28;;;;;;;41.60;24.80;;;;;;;;;;5013091;28;20505;-72
2023/09/12 10:30:53;;;;;;;40.83;24.15;;;;;;;;;;5013293;28;20021;-72
2023/09/12 10:33:19;;;;;;;43.97;25.33;;;;;;;;;;5012701;28;20485;-71
2023/09/12 10:35:45;;;;;;;44.65;25.30;;;;;;;;;;5013289;28;20037;-72
2023/09/12 10:38:13;;;;;;;41.95;24.73;;;;;;;;;;5013341;28;20030;-72
2023/09/12 10:40:39;;;;;;;44.60;25.88;;;;;;;;;;5013209;28;20101;-72
2023/09/12 10:43:05;;;;;;;44.10;26.65;;;;;;;;;;5014505;28;20433;-72
2023/09/12 10:45:33;;;;;;;40.38;25.20;;;;;;;;;;5017073;28;20049;-72
2023/09/12 10:47:58;;;;;;;39.83;24.70;;;;;;;;;;5016790;28;20460;-72
2023/09/12 10:50:24;;;;;;;37.05;21.92;;;;;;;;;;5015374;28;20025;-72
2023/09/12 10:52:49;;;;;;;32.78;20.95;;;;;;;;;;5016952;28;20030;-72
2023/09/12 10:55:18;;;;;;;33.80;20.45;;;;;;;;;;5016603;28;20022;-72
2023/09/12 10:58:05;;;;;;;30.92;19.90;;;;;;;;;;5016861;28;20423;-72
2023/09/12 11:00:34;;;;;;;27.73;19.70;;;;;;;;;;5016469;28;20022;-72
2023/09/12 11:03:19;;;;;;;30.15;20.77;;;;;;;;;;5016272;28;20049;-72
2023/09/12 11:05:52;;;;;;;28.40;19.63;;;;;;;;;;5016026;28;20068;-72
2023/09/12 11:08:17;;;;;;;27.17;19.35;;;;;;;;;;5016523;28;20022;-72
2023/09/12 11:10:42;;;;;;;27.75;18.50;;;;;;;;;;5014053;28;20030;-72
2023/09/12 11:13:16;;;;;;;26.88;18.63;;;;;;;;;;5016566;28;20030;-72
2023/09/12 11:16:01;;;;;;;30.00;17.85;;;;;;;;;;5016433;28;20097;-71
2023/09/12 11:18:26;;;;;;;25.85;18.80;;;;;;;;;;5016102;28;20045;-72
2023/09/12 11:21:10;;;;;;;27.52;18.67;;;;;;;;;;5015735;28;20418;-72
2023/09/12 11:23:35;;;;;;;25.92;17.85;;;;;;;;;;5015983;28;20022;-72
2023/09/12 11:26:05;;;;;;;24.25;16.63;;;;;;;;;;5016318;28;20079;-72
2023/09/12 11:28:31;;;;;;;18.88;14.48;;;;;;;;;;5016239;28;20433;-72
2023/09/12 11:30:57;;;;;;;19.45;14.50;;;;;;;;;;5004850;28;20018;-72
2023/09/12 11:33:23;;;;;;;20.33;14.88;;;;;;;;;;5000442;28;20386;-71
2023/09/12 11:35:51;;;;;;;28.80;17.85;;;;;;;;;;5014044;28;20030;-71
2023/09/12 11:38:25;;;;;;;25.50;17.75;;;;;;;;;;5015803;28;20018;-71
2023/09/12 11:40:51;;;;;;;25.33;18.23;;;;;;;;;;5015789;28;20029;-71
2023/09/12 11:43:26;;;;;;;24.88;17.08;;;;;;;;;;5015956;28;20018;-71
2023/09/12 11:45:51;;;;;;;21.92;16.45;;;;;;;;;;5012649;28;20014;-71
2023/09/12 11:48:17;;;;;;;22.98;16.02;;;;;;;;;;5015444;28;20092;-72
2023/09/12 11:50:48;;;;;;;24.88;16.98;;;;;;;;;;5012402;28;20021;-72
2023/09/12 11:53:14;;;;;;;19.38;13.48;;;;;;;;;;5015295;28;20053;-71
2023/09/12 11:55:43;;;;;;;19.13;14.32;;;;;;;;;;5014564;28;20107;-71
2023/09/12 11:58:10;;;;;;;17.60;14.07;;;;;;;;;;5015449;28;20034;-73
2023/09/12 12:00:35;;;;;;;19.13;12.98;;;;;;;;;;5015673;28;20541;-73
2023/09/12 12:03:00;;;;;;;17.15;13.60;;;;;;;;;;5014618;28;20057;-70
2023/09/12 12:05:26;;;;;;;16.80;12.73;;;;;;;;;;5014976;28;20034;-71
2023/09/12 12:07:51;;;;;;;18.73;13.73;;;;;;;;;;5014724;28;20018;-73
2023/09/12 12:10:17;;;;;;;18.92;13.02;;;;;;;;;;5015182;28;20045;-71
2023/09/12 12:12:43;;;;;;;20.55;15.43;;;;;;;;;;5015117;28;20571;-70
2023/09/12 12:15:12;;;;;;;20.80;14.95;;;;;;;;;;5013904;28;20554;-70
2023/09/12 12:17:40;;;;;;;19.25;14.38;;;;;;;;;;5012034;28;20453;-71
2023/09/12 12:20:08;;;;;;;18.63;14.27;;;;;;;;;;5014615;28;20022;-70
2023/09/12 12:22:33;;;;;;;17.52;13.55;;;;;;;;;;5014868;28;20034;-71
2023/09/12 12:25:05;;;;;;;17.05;12.98;;;;;;;;;;5014878;28;20029;-70
2023/09/12 12:27:30;;;;;;;15.00;11.35;;;;;;;;;;5015213;28;20397;-71
2023/09/12 12:29:55;;;;;;;17.30;11.77;;;;;;;;;;5014856;28;20029;-71
2023/09/12 12:32:21;;;;;;;17.27;12.55;;;;;;;;;;5014641;28;20028;-71
2023/09/12 12:34:49;;;;;;;14.63;11.07;;;;;;;;;;5014761;28;20021;-70
2023/09/12 12:37:14;;;;;;;13.70;10.00;;;;;;;;;;5015052;28;20036;-71
2023/09/12 12:39:42;;;;;;;17.88;9.77;;;;;;;;;;5014564;28;20021;-71
2023/09/12 12:42:08;;;;;;;12.35;8.35;;;;;;;;;;5014774;28;20486;-67
2023/09/12 12:44:36;;;;;;;10.40;8.18;;;;;;;;;;5014738;28;20026;-68
2023/09/12 12:47:04;;;;;;;12.85;8.20;;;;;;;;;;5014502;28;20093;-67
2023/09/12 12:49:35;;;;;;;11.57;8.63;;;;;;;;;;5014481;28;20049;-66
2023/09/12 12:52:02;;;;;;;16.05;9.82;;;;;;;;;;5013130;28;20045;-67
2023/09/12 12:54:31;;;;;;;13.90;8.98;;;;;;;;;;5014392;28;20018;-66
2023/09/12 12:56:56;;;;;;;14.73;9.13;;;;;;;;;;5014673;28;20025;-67
2023/09/12 12:59:22;;;;;;;12.95;8.95;;;;;;;;;;5014173;28;20022;-67
2023/09/12 13:01:47;;;;;;;11.68;8.32;;;;;;;;;;5014201;28;20032;-66
2023/09/12 13:04:12;;;;;;;11.65;8.38;;;;;;;;;;5013857;28;20066;-65
2023/09/12 13:06:37;;;;;;;11.70;9.20;;;;;;;;;;5013682;28;20033;-66
2023/09/12 13:09:08;;;;;;;14.02;9.63;;;;;;;;;;5011521;28;20049;-66
2023/09/12 13:11:34;;;;;;;18.25;11.30;;;;;;;;;;5014325;28;20014;-67
2023/09/12 13:14:00;;;;;;;15.10;10.60;;;;;;;;;;5013810;28;20025;-67
2023/09/12 13:16:25;;;;;;;15.35;10.65;;;;;;;;;;5014071;28;20030;-68
2023/09/12 13:18:50;;;;;;;13.98;9.68;;;;;;;;;;5013870;28;20437;-69
2023/09/12 13:21:15;;;;;;;12.52;9.65;;;;;;;;;;5013845;28;20044;-68
2023/09/12 13:23:41;;;;;;;11.82;8.80;;;;;;;;;;5013660;28;20022;-67
2023/09/12 13:26:07;;;;;;;13.45;10.10;;;;;;;;;;5013767;28;20028;-66
2023/09/12 13:28:32;;;;;;;15.77;10.20;;;;;;;;;;5012487;28;20537;-68
2023/09/12 13:30:58;;;;;;;13.32;10.00;;;;;;;;;;5010801;28;20034;-67
2023/09/12 13:33:23;;;;;;;12.80;9.73;;;;;;;;;;5013930;28;20026;-67
2023/09/12 13:35:49;;;;;;;12.98;9.73;;;;;;;;;;5013317;28;20049;-68
2023/09/12 13:38:16;;;;;;;13.13;9.68;;;;;;;;;;5013769;28;20021;-67
2023/09/12 13:40:42;;;;;;;13.07;9.82;;;;;;;;;;5013734;28;20474;-67
2023/09/12 13:43:07;;;;;;;14.55;10.07;;;;;;;;;;5012431;28;20025;-67
2023/09/12 13:45:33;;;;;;;13.38;10.10;;;;;;;;;;5013590;28;20018;-68
2023/09/12 13:47:59;;;;;;;11.68;8.98;;;;;;;;;;5011623;28;20149;-68
2023/09/12 13:50:24;;;;;;;11.52;8.27;;;;;;;;;;5012275;28;20026;-67
2023/09/12 13:52:50;;;;;;;13.13;8.63;;;;;;;;;;5012641;28;20141;-67
2023/09/12 13:55:15;;;;;;;15.50;9.50;;;;;;;;;;5013715;28;20482;-67
2023/09/12 13:57:41;;;;;;;16.20;9.85;;;;;;;;;;5013180;28;20534;-67
2023/09/12 14:00:07;;;;;;;18.50;10.80;;;;;;;;;;5013664;28;20022;-67
2023/09/12 14:02:32;;;;;;;16.92;9.75;;;;;;;;;;5013270;28;20022;-67
2023/09/12 14:04:57;;;;;;;15.05;9.93;;;;;;;;;;5013550;28;20029;-65
2023/09/12 14:07:22;;;;;;;14.82;10.48;;;;;;;;;;5012892;28;20056;-68
2023/09/12 14:09:49;;;;;;;15.63;10.20;;;;;;;;;;5007420;28;20099;-68